sensor_id;sensor_type;location;lat;lon;timestamp;pressure;altitude;pressure_sealevel;temperature;humidity
46598;BME280;32318;48.858;8.252;2023-02-13T00:07:58;102193.50;;;4.02;79.46
46598;BME280;32318;48.858;8.252;2023-02-13T00:15:59;102194.31;;;4.04;79.66
46598;BME280;32318;48.858;8.252;2023-02-13T00:24:00;102198.44;;;3.71;79.88
46598;BME280;32318;48.858;8.252;2023-02-13T00:32:00;102200.09;;;3.74;80.02
46598;BME280;32318;48.858;8.252;2023-02-13T00:40:01;102198.66;;;3.67;80.75
46598;BME280;32318;48.858;8.252;2023-02-13T00:48:01;102200.59;;;3.63;80.74
46598;BME280;32318;48.858;8.252;2023-02-13T00:56:02;102196.44;;;3.57;78.90
46598;BME280;32318;48.858;8.252;2023-02-13T01:04:02;102199.78;;;3.42;78.50
46598;BME280;32318;48.858;8.252;2023-02-13T01:12:03;102199.56;;;3.07;78.77
46598;BME280;32318;48.858;8.252;2023-02-13T01:20:07;102204.25;;;2.79;79.57
46598;BME280;32318;48.858;8.252;2023-02-13T01:28:08;102211.81;;;2.87;82.49
46598;BME280;32318;48.858;8.252;2023-02-13T01:36:10;102209.88;;;2.92;82.99
46598;BME280;32318;48.858;8.252;2023-02-13T01:44:51;102211.44;;;2.96;82.34
46598;BME280;32318;48.858;8.252;2023-02-13T01:53:03;102214.88;;;2.98;81.83
46598;BME280;32318;48.858;8.252;2023-02-13T02:01:04;102218.44;;;2.97;81.89
46598;BME280;32318;48.858;8.252;2023-02-13T02:09:10;102226.00;;;2.85;80.71
46598;BME280;32318;48.858;8.252;2023-02-13T02:17:11;102226.47;;;2.74;80.78
46598;BME280;32318;48.858;8.252;2023-02-13T02:33:51;102220.13;;;2.57;79.09
46598;BME280;32318;48.858;8.252;2023-02-13T02:58:50;102219.13;;;2.38;79.63
46598;BME280;32318;48.858;8.252;2023-02-13T03:07:14;102214.22;;;2.28;79.22
46598;BME280;32318;48.858;8.252;2023-02-13T03:15:15;102220.41;;;2.27;79.65
46598;BME280;32318;48.858;8.252;2023-02-13T03:31:43;102234.47;;;2.06;79.59
46598;BME280;32318;48.858;8.252;2023-02-13T03:39:54;102237.50;;;1.95;79.02
46598;BME280;32318;48.858;8.252;2023-02-13T03:47:57;102252.38;;;1.96;78.93
46598;BME280;32318;48.858;8.252;2023-02-13T03:56:01;102256.22;;;1.87;79.13
46598;BME280;32318;48.858;8.252;2023-02-13T04:04:56;102269.56;;;1.82;78.71
46598;BME280;32318;48.858;8.252;2023-02-13T04:21:33;102279.94;;;1.63;79.43
46598;BME280;32318;48.858;8.252;2023-02-13T04:29:33;102278.31;;;1.59;79.28
46598;BME280;32318;48.858;8.252;2023-02-13T04:37:34;102267.91;;;1.56;79.06
46598;BME280;32318;48.858;8.252;2023-02-13T04:45:34;102267.25;;;1.49;79.12
46598;BME280;32318;48.858;8.252;2023-02-13T04:53:34;102263.59;;;1.53;79.08
46598;BME280;32318;48.858;8.252;2023-02-13T05:01:35;102261.19;;;1.47;78.44
46598;BME280;32318;48.858;8.252;2023-02-13T05:09:35;102256.81;;;1.46;78.50
46598;BME280;32318;48.858;8.252;2023-02-13T05:17:35;102247.94;;;1.25;78.00
46598;BME280;32318;48.858;8.252;2023-02-13T05:25:37;102262.00;;;1.24;78.12
46598;BME280;32318;48.858;8.252;2023-02-13T05:33:38;102260.31;;;1.21;78.21
46598;BME280;32318;48.858;8.252;2023-02-13T05:41:38;102259.34;;;1.24;78.60
46598;BME280;32318;48.858;8.252;2023-02-13T05:49:38;102255.16;;;1.18;78.21
46598;BME280;32318;48.858;8.252;2023-02-13T05:57:38;102261.34;;;1.17;78.44
46598;BME280;32318;48.858;8.252;2023-02-13T06:05:39;102264.84;;;1.18;79.53
46598;BME280;32318;48.858;8.252;2023-02-13T06:13:39;102270.84;;;1.21;79.39
46598;BME280;32318;48.858;8.252;2023-02-13T06:21:39;102266.56;;;1.19;78.31
46598;BME280;32318;48.858;8.252;2023-02-13T06:29:40;102256.41;;;1.08;78.51
46598;BME280;32318;48.858;8.252;2023-02-13T06:37:41;102271.47;;;1.03;78.73
46598;BME280;32318;48.858;8.252;2023-02-13T06:45:44;102274.09;;;1.03;79.44
46598;BME280;32318;48.858;8.252;2023-02-13T06:53:46;102277.47;;;1.08;80.55
46598;BME280;32318;48.858;8.252;2023-02-13T07:01:46;102289.44;;;1.17;81.64
46598;BME280;32318;48.858;8.252;2023-02-13T07:09:46;102293.75;;;1.45;80.20
46598;BME280;32318;48.858;8.252;2023-02-13T07:17:47;102310.38;;;1.45;81.10
46598;BME280;32318;48.858;8.252;2023-02-13T07:25:47;102317.31;;;1.48;82.18
46598;BME280;32318;48.858;8.252;2023-02-13T07:33:47;102331.84;;;1.60;83.47
46598;BME280;32318;48.858;8.252;2023-02-13T07:41:48;102341.81;;;1.75;83.68
46598;BME280;32318;48.858;8.252;2023-02-13T07:49:48;102338.72;;;1.87;84.21
46598;BME280;32318;48.858;8.252;2023-02-13T07:57:49;102343.66;;;1.97;82.88
46598;BME280;32318;48.858;8.252;2023-02-13T08:05:49;102349.56;;;2.03;84.10
46598;BME280;32318;48.858;8.252;2023-02-13T08:13:50;102340.34;;;2.15;84.79
46598;BME280;32318;48.858;8.252;2023-02-13T08:21:50;102352.38;;;2.23;84.49
46598;BME280;32318;48.858;8.252;2023-02-13T08:29:50;102344.19;;;2.30;85.00
46598;BME280;32318;48.858;8.252;2023-02-13T08:37:53;102343.28;;;2.31;84.47
46598;BME280;32318;48.858;8.252;2023-02-13T08:45:57;102347.41;;;2.39;85.06
46598;BME280;32318;48.858;8.252;2023-02-13T08:53:58;102347.03;;;2.48;85.46
46598;BME280;32318;48.858;8.252;2023-02-13T09:01:58;102342.25;;;2.58;84.98
46598;BME280;32318;48.858;8.252;2023-02-13T09:09:59;102346.16;;;2.71;84.98
46598;BME280;32318;48.858;8.252;2023-02-13T09:17:59;102344.09;;;2.78;85.17
46598;BME280;32318;48.858;8.252;2023-02-13T09:26:00;102344.06;;;2.79;84.80
46598;BME280;32318;48.858;8.252;2023-02-13T09:34:03;102351.59;;;2.89;83.68
46598;BME280;32318;48.858;8.252;2023-02-13T09:42:16;102358.78;;;2.85;83.38
46598;BME280;32318;48.858;8.252;2023-02-13T09:50:30;102364.47;;;2.96;85.39
46598;BME280;32318;48.858;8.252;2023-02-13T10:06:42;102365.63;;;3.11;85.51
46598;BME280;32318;48.858;8.252;2023-02-13T10:24:06;102370.44;;;3.24;84.20
46598;BME280;32318;48.858;8.252;2023-02-13T10:32:13;102376.28;;;3.30;82.16
46598;BME280;32318;48.858;8.252;2023-02-13T10:40:16;102370.22;;;3.28;81.50
46598;BME280;32318;48.858;8.252;2023-02-13T10:48:35;102367.25;;;3.16;83.97
46598;BME280;32318;48.858;8.252;2023-02-13T10:56:40;102364.94;;;3.28;82.60
46598;BME280;32318;48.858;8.252;2023-02-13T11:04:43;102360.97;;;3.18;82.94
46598;BME280;32318;48.858;8.252;2023-02-13T11:12:44;102351.22;;;3.20;83.42
46598;BME280;32318;48.858;8.252;2023-02-13T11:20:45;102348.63;;;3.19;84.29
46598;BME280;32318;48.858;8.252;2023-02-13T11:28:52;102349.13;;;3.28;83.95
46598;BME280;32318;48.858;8.252;2023-02-13T11:37:18;102346.75;;;3.43;83.67
46598;BME280;32318;48.858;8.252;2023-02-13T11:45:22;102329.91;;;3.45;83.45
46598;BME280;32318;48.858;8.252;2023-02-13T11:53:28;102335.78;;;3.52;83.33
46598;BME280;32318;48.858;8.252;2023-02-13T12:01:29;102327.84;;;3.52;83.26
46598;BME280;32318;48.858;8.252;2023-02-13T12:09:29;102323.28;;;3.56;83.32
46598;BME280;32318;48.858;8.252;2023-02-13T12:17:31;102323.09;;;3.60;83.81
46598;BME280;32318;48.858;8.252;2023-02-13T13:00:04;102293.63;;;4.83;81.04
46598;BME280;32318;48.858;8.252;2023-02-13T13:16:58;102280.88;;;4.74;80.36
46598;BME280;32318;48.858;8.252;2023-02-13T13:25:18;102279.88;;;4.76;81.02
46598;BME280;32318;48.858;8.252;2023-02-13T13:33:24;102280.50;;;4.81;81.44
46598;BME280;32318;48.858;8.252;2023-02-13T13:41:48;102276.59;;;4.89;81.62
46598;BME280;32318;48.858;8.252;2023-02-13T13:49:58;102277.25;;;4.94;81.20
46598;BME280;32318;48.858;8.252;2023-02-13T13:57:59;102272.56;;;4.99;81.15
46598;BME280;32318;48.858;8.252;2023-02-13T14:06:08;102263.53;;;5.03;80.87
46598;BME280;32318;48.858;8.252;2023-02-13T14:22:33;102266.41;;;5.16;81.28
46598;BME280;32318;48.858;8.252;2023-02-13T14:30:37;102244.75;;;5.25;81.39
46598;BME280;32318;48.858;8.252;2023-02-13T14:38:38;102232.69;;;5.53;80.31
46598;BME280;32318;48.858;8.252;2023-02-13T14:46:39;102227.94;;;5.60;79.82
46598;BME280;32318;48.858;8.252;2023-02-13T14:54:48;102216.22;;;5.64;79.55
46598;BME280;32318;48.858;8.252;2023-02-13T15:03:01;102205.59;;;5.64;79.17
46598;BME280;32318;48.858;8.252;2023-02-13T15:11:03;102195.53;;;5.71;79.48
46598;BME280;32318;48.858;8.252;2023-02-13T15:19:03;102196.06;;;5.77;79.56
46598;BME280;32318;48.858;8.252;2023-02-13T15:27:05;102188.53;;;5.86;79.18
46598;BME280;32318;48.858;8.252;2023-02-13T15:35:28;102189.47;;;5.85;78.45
46598;BME280;32318;48.858;8.252;2023-02-13T15:43:33;102183.94;;;5.89;78.38
46598;BME280;32318;48.858;8.252;2023-02-13T15:51:34;102183.94;;;5.89;78.51
46598;BME280;32318;48.858;8.252;2023-02-13T15:59:37;102190.69;;;5.95;78.04
46598;BME280;32318;48.858;8.252;2023-02-13T16:07:53;102189.63;;;5.81;78.80
46598;BME280;32318;48.858;8.252;2023-02-13T16:15:53;102182.91;;;5.76;79.39
46598;BME280;32318;48.858;8.252;2023-02-13T16:24:05;102180.50;;;5.71;79.11
46598;BME280;32318;48.858;8.252;2023-02-13T16:32:12;102178.94;;;5.67;79.32
46598;BME280;32318;48.858;8.252;2023-02-13T16:40:38;102173.31;;;5.57;79.26
46598;BME280;32318;48.858;8.252;2023-02-13T16:48:42;102181.50;;;5.53;78.95
46598;BME280;32318;48.858;8.252;2023-02-13T17:12:48;102196.56;;;5.18;78.92
46598;BME280;32318;48.858;8.252;2023-02-13T17:20:48;102197.81;;;5.11;78.83
46598;BME280;32318;48.858;8.252;2023-02-13T17:28:49;102190.75;;;4.94;78.47
46598;BME280;32318;48.858;8.252;2023-02-13T17:36:49;102198.53;;;4.80;78.75
46598;BME280;32318;48.858;8.252;2023-02-13T17:44:49;102206.16;;;4.68;79.05
46598;BME280;32318;48.858;8.252;2023-02-13T17:52:50;102214.88;;;4.53;78.90
46598;BME280;32318;48.858;8.252;2023-02-13T18:00:51;102208.31;;;4.43;79.51
46598;BME280;32318;48.858;8.252;2023-02-13T18:08:51;102209.47;;;4.37;79.93
46598;BME280;32318;48.858;8.252;2023-02-13T18:16:51;102203.47;;;4.33;80.46
46598;BME280;32318;48.858;8.252;2023-02-13T18:24:52;102201.97;;;4.28;80.41
46598;BME280;32318;48.858;8.252;2023-02-13T18:32:54;102200.44;;;4.23;80.17
46598;BME280;32318;48.858;8.252;2023-02-13T18:40:55;102203.16;;;4.03;79.63
46598;BME280;32318;48.858;8.252;2023-02-13T18:48:55;102199.75;;;3.82;80.38
46598;BME280;32318;48.858;8.252;2023-02-13T18:56:56;102201.09;;;3.71;80.93
46598;BME280;32318;48.858;8.252;2023-02-13T19:04:56;102197.31;;;3.58;81.07
46598;BME280;32318;48.858;8.252;2023-02-13T19:12:57;102209.34;;;3.44;81.55
46598;BME280;32318;48.858;8.252;2023-02-13T19:21:01;102215.00;;;3.37;83.25
46598;BME280;32318;48.858;8.252;2023-02-13T19:29:02;102217.47;;;3.40;83.13
46598;BME280;32318;48.858;8.252;2023-02-13T19:37:02;102222.63;;;3.43;84.24
46598;BME280;32318;48.858;8.252;2023-02-13T19:45:03;102238.53;;;3.41;83.70
46598;BME280;32318;48.858;8.252;2023-02-13T19:53:04;102232.47;;;3.39;84.07
46598;BME280;32318;48.858;8.252;2023-02-13T20:01:26;102231.78;;;3.34;84.60
46598;BME280;32318;48.858;8.252;2023-02-13T20:09:26;102239.66;;;3.36;nan
46598;BME280;32318;48.858;8.252;2023-02-13T20:17:27;102239.50;;;3.39;85.04
46598;BME280;32318;48.858;8.252;2023-02-13T20:25:27;102241.38;;;3.37;84.68
46598;BME280;32318;48.858;8.252;2023-02-13T20:33:31;102237.22;;;3.31;84.91
46598;BME280;32318;48.858;8.252;2023-02-13T20:41:33;102240.06;;;3.26;85.42
46598;BME280;32318;48.858;8.252;2023-02-13T20:49:33;102241.06;;;3.24;85.13
46598;BME280;32318;48.858;8.252;2023-02-13T20:57:34;102236.63;;;3.24;85.52
46598;BME280;32318;48.858;8.252;2023-02-13T21:05:35;102234.00;;;3.24;85.06
46598;BME280;32318;48.858;8.252;2023-02-13T21:13:35;102226.66;;;3.31;84.98
46598;BME280;32318;48.858;8.252;2023-02-13T21:21:36;102225.34;;;3.21;85.94
46598;BME280;32318;48.858;8.252;2023-02-13T21:29:37;102227.88;;;3.24;85.41
46598;BME280;32318;48.858;8.252;2023-02-13T21:37:38;102224.34;;;3.23;85.77
46598;BME280;32318;48.858;8.252;2023-02-13T21:45:39;102227.50;;;3.32;85.53
46598;BME280;32318;48.858;8.252;2023-02-13T21:53:40;102222.81;;;3.38;85.61
46598;BME280;32318;48.858;8.252;2023-02-13T22:01:40;102227.19;;;3.39;85.48
46598;BME280;32318;48.858;8.252;2023-02-13T22:09:41;102215.75;;;3.39;85.30
46598;BME280;32318;48.858;8.252;2023-02-13T22:17:41;102214.50;;;3.27;85.49
46598;BME280;32318;48.858;8.252;2023-02-13T22:25:50;102213.94;;;3.20;85.71
46598;BME280;32318;48.858;8.252;2023-02-13T22:33:50;102222.91;;;3.16;85.98
46598;BME280;32318;48.858;8.252;2023-02-13T22:41:54;102222.78;;;3.19;86.11
46598;BME280;32318;48.858;8.252;2023-02-13T22:49:54;102225.06;;;3.27;86.34
46598;BME280;32318;48.858;8.252;2023-02-13T22:57:55;102225.28;;;3.22;85.94
46598;BME280;32318;48.858;8.252;2023-02-13T23:05:56;102225.69;;;3.13;85.71
46598;BME280;32318;48.858;8.252;2023-02-13T23:13:56;102232.03;;;3.09;85.49
46598;BME280;32318;48.858;8.252;2023-02-13T23:21:58;102240.75;;;3.11;85.61
46598;BME280;32318;48.858;8.252;2023-02-13T23:29:58;102236.69;;;3.02;85.02
46598;BME280;32318;48.858;8.252;2023-02-13T23:37:58;102228.59;;;3.07;85.46
46598;BME280;32318;48.858;8.252;2023-02-13T23:46:02;102231.44;;;3.02;85.46
46598;BME280;32318;48.858;8.252;2023-02-13T23:54:02;102233.16;;;3.03;85.60
